sensor_id;sensor_type;location;lat;lon;timestamp;P1;durP1;ratioP1;P2;durP2;ratioP2
67372;SDS011;54257;54.496;18.412;2023-05-10T00:02:08;6.10;;;3.60;;
67372;SDS011;54257;54.496;18.412;2023-05-10T00:04:34;5.20;;;4.00;;
67372;SDS011;54257;54.496;18.412;2023-05-10T00:07:01;6.00;;;3.70;;
67372;SDS011;54257;54.496;18.412;2023-05-10T00:09:28;6.20;;;3.80;;
67372;SDS011;54257;54.496;18.412;2023-05-10T00:11:55;7.60;;;3.90;;
67372;SDS011;54257;54.496;18.412;2023-05-10T00:14:21;4.20;;;3.90;;
67372;SDS011;54257;54.496;18.412;2023-05-10T00:16:49;5.20;;;3.40;;
67372;SDS011;54257;54.496;18.412;2023-05-10T00:19:16;9.10;;;3.50;;
67372;SDS011;54257;54.496;18.412;2023-05-10T00:21:42;6.90;;;3.70;;
67372;SDS011;54257;54.496;18.412;2023-05-10T00:24:09;4.70;;;3.50;;
67372;SDS011;54257;54.496;18.412;2023-05-10T00:26:36;8.70;;;3.90;;
67372;SDS011;54257;54.496;18.412;2023-05-10T00:29:02;5.30;;;4.20;;
67372;SDS011;54257;54.496;18.412;2023-05-10T00:31:29;6.00;;;3.70;;
67372;SDS011;54257;54.496;18.412;2023-05-10T00:33:56;6.30;;;3.80;;
67372;SDS011;54257;54.496;18.412;2023-05-10T00:36:22;5.50;;;3.50;;
67372;SDS011;54257;54.496;18.412;2023-05-10T00:38:49;6.40;;;3.60;;
67372;SDS011;54257;54.496;18.412;2023-05-10T00:41:16;6.20;;;3.80;;
67372;SDS011;54257;54.496;18.412;2023-05-10T00:43:44;5.80;;;4.30;;
67372;SDS011;54257;54.496;18.412;2023-05-10T00:46:11;6.20;;;3.60;;
67372;SDS011;54257;54.496;18.412;2023-05-10T00:48:39;4.50;;;3.70;;
67372;SDS011;54257;54.496;18.412;2023-05-10T00:51:06;5.60;;;3.50;;
67372;SDS011;54257;54.496;18.412;2023-05-10T00:53:32;4.10;;;3.70;;
67372;SDS011;54257;54.496;18.412;2023-05-10T00:56:01;7.90;;;4.60;;
67372;SDS011;54257;54.496;18.412;2023-05-10T00:58:29;5.20;;;3.70;;
67372;SDS011;54257;54.496;18.412;2023-05-10T01:00:57;4.60;;;3.50;;
67372;SDS011;54257;54.496;18.412;2023-05-10T01:03:25;5.90;;;3.50;;
67372;SDS011;54257;54.496;18.412;2023-05-10T01:05:52;5.20;;;4.00;;
67372;SDS011;54257;54.496;18.412;2023-05-10T01:08:19;5.80;;;3.30;;
67372;SDS011;54257;54.496;18.412;2023-05-10T01:10:46;7.90;;;4.40;;
67372;SDS011;54257;54.496;18.412;2023-05-10T01:13:26;6.30;;;4.10;;
67372;SDS011;54257;54.496;18.412;2023-05-10T01:15:54;6.40;;;3.80;;
67372;SDS011;54257;54.496;18.412;2023-05-10T01:18:22;5.30;;;4.00;;
67372;SDS011;54257;54.496;18.412;2023-05-10T01:20:52;4.80;;;3.80;;
67372;SDS011;54257;54.496;18.412;2023-05-10T01:32:41;6.80;;;3.90;;
67372;SDS011;54257;54.496;18.412;2023-05-10T01:35:17;10.00;;;4.00;;
67372;SDS011;54257;54.496;18.412;2023-05-10T01:38:11;8.40;;;4.70;;
67372;SDS011;54257;54.496;18.412;2023-05-10T01:40:52;4.20;;;3.60;;
67372;SDS011;54257;54.496;18.412;2023-05-10T01:43:42;6.40;;;3.90;;
67372;SDS011;54257;54.496;18.412;2023-05-10T01:46:17;7.80;;;4.60;;
67372;SDS011;54257;54.496;18.412;2023-05-10T01:48:51;6.80;;;3.90;;
67372;SDS011;54257;54.496;18.412;2023-05-10T01:51:25;5.60;;;3.60;;
67372;SDS011;54257;54.496;18.412;2023-05-10T01:56:25;4.90;;;3.70;;
67372;SDS011;54257;54.496;18.412;2023-05-10T01:58:54;5.60;;;4.40;;
67372;SDS011;54257;54.496;18.412;2023-05-10T02:01:22;6.10;;;4.40;;
67372;SDS011;54257;54.496;18.412;2023-05-10T02:03:53;5.40;;;4.20;;
67372;SDS011;54257;54.496;18.412;2023-05-10T02:06:23;5.20;;;4.00;;
67372;SDS011;54257;54.496;18.412;2023-05-10T02:08:51;5.90;;;4.50;;
67372;SDS011;54257;54.496;18.412;2023-05-10T02:11:19;6.60;;;4.40;;
67372;SDS011;54257;54.496;18.412;2023-05-10T02:13:48;7.20;;;4.20;;
67372;SDS011;54257;54.496;18.412;2023-05-10T02:16:16;6.60;;;4.40;;
67372;SDS011;54257;54.496;18.412;2023-05-10T02:18:48;6.00;;;4.10;;
67372;SDS011;54257;54.496;18.412;2023-05-10T02:21:16;4.30;;;3.80;;
67372;SDS011;54257;54.496;18.412;2023-05-10T02:23:45;5.50;;;4.20;;
67372;SDS011;54257;54.496;18.412;2023-05-10T02:26:14;12.10;;;4.70;;
67372;SDS011;54257;54.496;18.412;2023-05-10T02:28:43;5.40;;;4.20;;
67372;SDS011;54257;54.496;18.412;2023-05-10T02:31:12;5.70;;;4.00;;
67372;SDS011;54257;54.496;18.412;2023-05-10T02:33:40;5.50;;;4.40;;
67372;SDS011;54257;54.496;18.412;2023-05-10T02:36:08;7.70;;;4.80;;
67372;SDS011;54257;54.496;18.412;2023-05-10T02:38:36;5.00;;;4.30;;
67372;SDS011;54257;54.496;18.412;2023-05-10T02:41:04;6.30;;;4.30;;
67372;SDS011;54257;54.496;18.412;2023-05-10T02:43:32;6.40;;;4.20;;
67372;SDS011;54257;54.496;18.412;2023-05-10T02:46:00;5.60;;;4.20;;
67372;SDS011;54257;54.496;18.412;2023-05-10T02:48:27;6.80;;;4.10;;
67372;SDS011;54257;54.496;18.412;2023-05-10T02:50:55;7.80;;;4.30;;
67372;SDS011;54257;54.496;18.412;2023-05-10T02:53:33;8.80;;;4.30;;
67372;SDS011;54257;54.496;18.412;2023-05-10T02:56:04;6.30;;;4.20;;
67372;SDS011;54257;54.496;18.412;2023-05-10T02:58:34;5.80;;;4.40;;
67372;SDS011;54257;54.496;18.412;2023-05-10T03:01:02;8.70;;;4.90;;
67372;SDS011;54257;54.496;18.412;2023-05-10T03:03:28;7.10;;;4.00;;
67372;SDS011;54257;54.496;18.412;2023-05-10T03:05:55;6.70;;;4.80;;
67372;SDS011;54257;54.496;18.412;2023-05-10T03:08:23;5.60;;;4.10;;
67372;SDS011;54257;54.496;18.412;2023-05-10T03:13:48;6.30;;;4.40;;
67372;SDS011;54257;54.496;18.412;2023-05-10T03:16:35;7.80;;;4.30;;
67372;SDS011;54257;54.496;18.412;2023-05-10T03:19:26;5.80;;;4.20;;
67372;SDS011;54257;54.496;18.412;2023-05-10T03:21:58;4.70;;;4.20;;
67372;SDS011;54257;54.496;18.412;2023-05-10T03:24:29;6.80;;;4.10;;
67372;SDS011;54257;54.496;18.412;2023-05-10T03:26:58;5.40;;;4.50;;
67372;SDS011;54257;54.496;18.412;2023-05-10T03:29:32;7.30;;;4.40;;
67372;SDS011;54257;54.496;18.412;2023-05-10T03:32:00;9.60;;;4.80;;
67372;SDS011;54257;54.496;18.412;2023-05-10T03:34:27;6.20;;;4.30;;
67372;SDS011;54257;54.496;18.412;2023-05-10T03:36:56;4.00;;;3.60;;
67372;SDS011;54257;54.496;18.412;2023-05-10T03:39:23;4.10;;;3.70;;
67372;SDS011;54257;54.496;18.412;2023-05-10T03:41:51;5.60;;;4.30;;
67372;SDS011;54257;54.496;18.412;2023-05-10T03:44:17;4.70;;;3.80;;
67372;SDS011;54257;54.496;18.412;2023-05-10T03:46:44;8.40;;;4.80;;
67372;SDS011;54257;54.496;18.412;2023-05-10T03:49:11;5.60;;;4.20;;
67372;SDS011;54257;54.496;18.412;2023-05-10T03:51:38;9.90;;;4.00;;
67372;SDS011;54257;54.496;18.412;2023-05-10T03:54:05;6.70;;;4.80;;
67372;SDS011;54257;54.496;18.412;2023-05-10T03:56:32;5.50;;;4.10;;
67372;SDS011;54257;54.496;18.412;2023-05-10T03:58:58;5.70;;;4.70;;
67372;SDS011;54257;54.496;18.412;2023-05-10T04:01:25;6.30;;;4.20;;
67372;SDS011;54257;54.496;18.412;2023-05-10T04:03:52;6.10;;;4.10;;
67372;SDS011;54257;54.496;18.412;2023-05-10T04:06:19;5.90;;;4.40;;
67372;SDS011;54257;54.496;18.412;2023-05-10T04:08:46;6.30;;;4.10;;
67372;SDS011;54257;54.496;18.412;2023-05-10T04:11:13;9.60;;;4.60;;
67372;SDS011;54257;54.496;18.412;2023-05-10T04:13:40;6.50;;;4.20;;
67372;SDS011;54257;54.496;18.412;2023-05-10T04:16:10;9.60;;;4.20;;
67372;SDS011;54257;54.496;18.412;2023-05-10T04:18:37;7.80;;;4.50;;
67372;SDS011;54257;54.496;18.412;2023-05-10T04:21:03;5.20;;;4.10;;
67372;SDS011;54257;54.496;18.412;2023-05-10T04:23:30;8.70;;;4.30;;
67372;SDS011;54257;54.496;18.412;2023-05-10T04:26:00;6.10;;;4.30;;
67372;SDS011;54257;54.496;18.412;2023-05-10T04:28:27;5.90;;;4.20;;
67372;SDS011;54257;54.496;18.412;2023-05-10T04:31:01;6.20;;;4.70;;
67372;SDS011;54257;54.496;18.412;2023-05-10T04:33:32;5.10;;;4.00;;
67372;SDS011;54257;54.496;18.412;2023-05-10T04:36:00;11.80;;;4.00;;
67372;SDS011;54257;54.496;18.412;2023-05-10T04:38:27;5.60;;;4.40;;
67372;SDS011;54257;54.496;18.412;2023-05-10T04:40:54;7.10;;;4.10;;
67372;SDS011;54257;54.496;18.412;2023-05-10T04:43:33;5.90;;;4.00;;
67372;SDS011;54257;54.496;18.412;2023-05-10T04:46:01;6.90;;;4.20;;
67372;SDS011;54257;54.496;18.412;2023-05-10T04:48:28;29.70;;;4.80;;
67372;SDS011;54257;54.496;18.412;2023-05-10T04:50:56;5.90;;;3.90;;
67372;SDS011;54257;54.496;18.412;2023-05-10T04:53:23;6.10;;;4.40;;
67372;SDS011;54257;54.496;18.412;2023-05-10T04:55:50;6.40;;;4.60;;
67372;SDS011;54257;54.496;18.412;2023-05-10T04:58:17;10.30;;;4.30;;
67372;SDS011;54257;54.496;18.412;2023-05-10T05:00:44;8.50;;;3.90;;
67372;SDS011;54257;54.496;18.412;2023-05-10T05:03:10;7.00;;;4.20;;
67372;SDS011;54257;54.496;18.412;2023-05-10T05:05:37;7.30;;;4.20;;
67372;SDS011;54257;54.496;18.412;2023-05-10T05:08:04;6.80;;;4.00;;
67372;SDS011;54257;54.496;18.412;2023-05-10T05:10:31;9.00;;;4.60;;
67372;SDS011;54257;54.496;18.412;2023-05-10T05:12:58;8.20;;;3.90;;
67372;SDS011;54257;54.496;18.412;2023-05-10T05:15:25;5.90;;;4.00;;
67372;SDS011;54257;54.496;18.412;2023-05-10T05:17:52;5.70;;;3.90;;
67372;SDS011;54257;54.496;18.412;2023-05-10T05:20:19;14.50;;;5.00;;
67372;SDS011;54257;54.496;18.412;2023-05-10T05:22:46;5.30;;;3.50;;
67372;SDS011;54257;54.496;18.412;2023-05-10T05:25:12;6.10;;;4.40;;
67372;SDS011;54257;54.496;18.412;2023-05-10T05:27:39;6.90;;;3.70;;
67372;SDS011;54257;54.496;18.412;2023-05-10T05:30:06;6.90;;;4.50;;
67372;SDS011;54257;54.496;18.412;2023-05-10T05:32:34;8.60;;;4.30;;
67372;SDS011;54257;54.496;18.412;2023-05-10T05:35:01;14.80;;;5.00;;
67372;SDS011;54257;54.496;18.412;2023-05-10T05:37:31;8.40;;;4.50;;
67372;SDS011;54257;54.496;18.412;2023-05-10T05:39:57;12.20;;;4.50;;
67372;SDS011;54257;54.496;18.412;2023-05-10T05:42:24;22.60;;;4.70;;
67372;SDS011;54257;54.496;18.412;2023-05-10T05:44:52;7.10;;;4.50;;
67372;SDS011;54257;54.496;18.412;2023-05-10T05:47:20;15.80;;;5.70;;
67372;SDS011;54257;54.496;18.412;2023-05-10T05:49:47;14.40;;;5.00;;
67372;SDS011;54257;54.496;18.412;2023-05-10T05:52:14;9.90;;;4.20;;
67372;SDS011;54257;54.496;18.412;2023-05-10T05:54:41;9.90;;;4.90;;
67372;SDS011;54257;54.496;18.412;2023-05-10T05:57:08;12.70;;;5.20;;
67372;SDS011;54257;54.496;18.412;2023-05-10T05:59:35;27.40;;;6.40;;
67372;SDS011;54257;54.496;18.412;2023-05-10T06:02:02;15.20;;;4.20;;
67372;SDS011;54257;54.496;18.412;2023-05-10T06:04:29;6.20;;;4.50;;
67372;SDS011;54257;54.496;18.412;2023-05-10T06:06:56;17.30;;;5.30;;
67372;SDS011;54257;54.496;18.412;2023-05-10T06:09:23;14.20;;;4.70;;
67372;SDS011;54257;54.496;18.412;2023-05-10T06:11:50;12.50;;;4.30;;
67372;SDS011;54257;54.496;18.412;2023-05-10T06:14:17;27.80;;;5.30;;
67372;SDS011;54257;54.496;18.412;2023-05-10T06:16:46;8.30;;;4.70;;
67372;SDS011;54257;54.496;18.412;2023-05-10T06:19:13;12.70;;;5.20;;
67372;SDS011;54257;54.496;18.412;2023-05-10T06:21:43;10.50;;;4.70;;
67372;SDS011;54257;54.496;18.412;2023-05-10T06:24:10;27.20;;;6.20;;
67372;SDS011;54257;54.496;18.412;2023-05-10T06:26:37;7.10;;;4.40;;
67372;SDS011;54257;54.496;18.412;2023-05-10T06:29:04;8.00;;;4.40;;
67372;SDS011;54257;54.496;18.412;2023-05-10T06:31:31;15.80;;;5.30;;
67372;SDS011;54257;54.496;18.412;2023-05-10T06:33:58;22.60;;;5.80;;
67372;SDS011;54257;54.496;18.412;2023-05-10T06:36:24;9.50;;;4.10;;
67372;SDS011;54257;54.496;18.412;2023-05-10T06:38:52;9.50;;;4.40;;
67372;SDS011;54257;54.496;18.412;2023-05-10T06:41:19;6.80;;;4.30;;
67372;SDS011;54257;54.496;18.412;2023-05-10T06:43:47;4.40;;;4.00;;
67372;SDS011;54257;54.496;18.412;2023-05-10T06:46:14;12.10;;;4.40;;
67372;SDS011;54257;54.496;18.412;2023-05-10T06:48:41;4.40;;;3.70;;
67372;SDS011;54257;54.496;18.412;2023-05-10T06:51:07;8.50;;;4.20;;
67372;SDS011;54257;54.496;18.412;2023-05-10T06:53:34;4.50;;;3.80;;
67372;SDS011;54257;54.496;18.412;2023-05-10T06:56:01;8.20;;;3.90;;
67372;SDS011;54257;54.496;18.412;2023-05-10T06:58:29;4.80;;;3.30;;
67372;SDS011;54257;54.496;18.412;2023-05-10T07:01:01;7.20;;;3.70;;
67372;SDS011;54257;54.496;18.412;2023-05-10T07:03:29;10.20;;;3.80;;
67372;SDS011;54257;54.496;18.412;2023-05-10T07:05:59;17.60;;;5.30;;
67372;SDS011;54257;54.496;18.412;2023-05-10T07:08:32;8.10;;;4.30;;
67372;SDS011;54257;54.496;18.412;2023-05-10T07:11:01;7.60;;;3.90;;
67372;SDS011;54257;54.496;18.412;2023-05-10T07:13:33;8.10;;;4.00;;
67372;SDS011;54257;54.496;18.412;2023-05-10T07:16:00;8.30;;;3.70;;
67372;SDS011;54257;54.496;18.412;2023-05-10T07:18:28;13.80;;;4.80;;
67372;SDS011;54257;54.496;18.412;2023-05-10T07:20:56;10.60;;;4.20;;
67372;SDS011;54257;54.496;18.412;2023-05-10T07:23:23;9.50;;;3.80;;
67372;SDS011;54257;54.496;18.412;2023-05-10T07:25:50;14.90;;;4.40;;
67372;SDS011;54257;54.496;18.412;2023-05-10T07:28:20;7.80;;;3.50;;
67372;SDS011;54257;54.496;18.412;2023-05-10T07:30:47;4.30;;;3.40;;
67372;SDS011;54257;54.496;18.412;2023-05-10T07:33:14;10.90;;;4.10;;
67372;SDS011;54257;54.496;18.412;2023-05-10T07:35:42;7.00;;;4.10;;
67372;SDS011;54257;54.496;18.412;2023-05-10T07:38:09;33.50;;;5.10;;
67372;SDS011;54257;54.496;18.412;2023-05-10T07:40:38;7.10;;;4.00;;
67372;SDS011;54257;54.496;18.412;2023-05-10T07:43:05;9.60;;;3.90;;
67372;SDS011;54257;54.496;18.412;2023-05-10T07:45:33;11.90;;;3.90;;
67372;SDS011;54257;54.496;18.412;2023-05-10T07:48:00;6.90;;;3.40;;
67372;SDS011;54257;54.496;18.412;2023-05-10T07:50:27;9.40;;;3.10;;
67372;SDS011;54257;54.496;18.412;2023-05-10T07:52:54;12.10;;;3.90;;
67372;SDS011;54257;54.496;18.412;2023-05-10T07:55:21;5.90;;;3.30;;
67372;SDS011;54257;54.496;18.412;2023-05-10T07:57:48;7.10;;;3.60;;
67372;SDS011;54257;54.496;18.412;2023-05-10T08:00:18;13.10;;;3.60;;
67372;SDS011;54257;54.496;18.412;2023-05-10T08:02:46;8.30;;;3.40;;
67372;SDS011;54257;54.496;18.412;2023-05-10T08:05:13;12.20;;;3.20;;
67372;SDS011;54257;54.496;18.412;2023-05-10T08:07:40;7.80;;;3.00;;
67372;SDS011;54257;54.496;18.412;2023-05-10T08:10:09;6.90;;;3.20;;
67372;SDS011;54257;54.496;18.412;2023-05-10T08:12:37;14.00;;;3.60;;
67372;SDS011;54257;54.496;18.412;2023-05-10T08:15:05;5.40;;;3.10;;
67372;SDS011;54257;54.496;18.412;2023-05-10T08:17:33;15.90;;;3.90;;
67372;SDS011;54257;54.496;18.412;2023-05-10T08:20:00;10.30;;;3.30;;
67372;SDS011;54257;54.496;18.412;2023-05-10T08:22:27;9.80;;;3.50;;
67372;SDS011;54257;54.496;18.412;2023-05-10T08:24:54;8.20;;;3.20;;
67372;SDS011;54257;54.496;18.412;2023-05-10T08:27:21;10.70;;;3.30;;
67372;SDS011;54257;54.496;18.412;2023-05-10T08:29:48;6.50;;;3.10;;
67372;SDS011;54257;54.496;18.412;2023-05-10T08:32:15;17.40;;;3.40;;
67372;SDS011;54257;54.496;18.412;2023-05-10T08:34:41;6.70;;;3.00;;
67372;SDS011;54257;54.496;18.412;2023-05-10T08:37:08;7.90;;;3.00;;
67372;SDS011;54257;54.496;18.412;2023-05-10T08:39:37;10.50;;;3.20;;
67372;SDS011;54257;54.496;18.412;2023-05-10T08:42:04;6.60;;;3.30;;
67372;SDS011;54257;54.496;18.412;2023-05-10T08:44:34;8.10;;;3.20;;
67372;SDS011;54257;54.496;18.412;2023-05-10T08:47:06;7.90;;;3.50;;
67372;SDS011;54257;54.496;18.412;2023-05-10T08:49:33;6.50;;;3.10;;
67372;SDS011;54257;54.496;18.412;2023-05-10T08:52:04;5.50;;;2.90;;
67372;SDS011;54257;54.496;18.412;2023-05-10T08:54:33;11.20;;;2.90;;
67372;SDS011;54257;54.496;18.412;2023-05-10T08:57:01;13.20;;;3.60;;
67372;SDS011;54257;54.496;18.412;2023-05-10T08:59:28;7.30;;;3.10;;
67372;SDS011;54257;54.496;18.412;2023-05-10T09:01:58;14.50;;;3.70;;
67372;SDS011;54257;54.496;18.412;2023-05-10T09:04:26;12.30;;;3.40;;
67372;SDS011;54257;54.496;18.412;2023-05-10T09:06:54;9.30;;;3.90;;
67372;SDS011;54257;54.496;18.412;2023-05-10T09:09:21;6.10;;;3.10;;
67372;SDS011;54257;54.496;18.412;2023-05-10T09:11:51;6.30;;;2.70;;
67372;SDS011;54257;54.496;18.412;2023-05-10T09:14:18;6.10;;;2.70;;
67372;SDS011;54257;54.496;18.412;2023-05-10T09:16:46;11.50;;;3.30;;
67372;SDS011;54257;54.496;18.412;2023-05-10T09:19:13;5.30;;;2.50;;
67372;SDS011;54257;54.496;18.412;2023-05-10T09:21:41;8.00;;;3.10;;
67372;SDS011;54257;54.496;18.412;2023-05-10T09:24:08;14.40;;;3.60;;
67372;SDS011;54257;54.496;18.412;2023-05-10T09:26:35;5.60;;;2.80;;
67372;SDS011;54257;54.496;18.412;2023-05-10T09:29:11;10.30;;;2.70;;
67372;SDS011;54257;54.496;18.412;2023-05-10T09:31:49;8.40;;;3.40;;
67372;SDS011;54257;54.496;18.412;2023-05-10T09:34:18;9.60;;;3.30;;
67372;SDS011;54257;54.496;18.412;2023-05-10T09:36:55;10.80;;;2.90;;
67372;SDS011;54257;54.496;18.412;2023-05-10T09:39:36;6.80;;;2.60;;
67372;SDS011;54257;54.496;18.412;2023-05-10T09:42:08;6.50;;;3.10;;
67372;SDS011;54257;54.496;18.412;2023-05-10T09:44:36;11.90;;;3.20;;
67372;SDS011;54257;54.496;18.412;2023-05-10T09:47:04;5.80;;;2.90;;
67372;SDS011;54257;54.496;18.412;2023-05-10T09:49:31;7.40;;;3.10;;
67372;SDS011;54257;54.496;18.412;2023-05-10T09:52:01;12.00;;;3.00;;
67372;SDS011;54257;54.496;18.412;2023-05-10T09:54:30;6.20;;;2.70;;
67372;SDS011;54257;54.496;18.412;2023-05-10T09:56:59;8.10;;;2.80;;
67372;SDS011;54257;54.496;18.412;2023-05-10T09:59:27;6.50;;;2.90;;
67372;SDS011;54257;54.496;18.412;2023-05-10T10:01:59;6.70;;;2.60;;
67372;SDS011;54257;54.496;18.412;2023-05-10T10:04:26;6.40;;;2.90;;
67372;SDS011;54257;54.496;18.412;2023-05-10T10:09:53;6.70;;;2.50;;
67372;SDS011;54257;54.496;18.412;2023-05-10T10:12:21;4.90;;;2.60;;
67372;SDS011;54257;54.496;18.412;2023-05-10T10:14:49;6.70;;;3.20;;
67372;SDS011;54257;54.496;18.412;2023-05-10T10:17:19;6.00;;;3.10;;
67372;SDS011;54257;54.496;18.412;2023-05-10T10:19:46;8.20;;;2.90;;
67372;SDS011;54257;54.496;18.412;2023-05-10T10:22:18;6.10;;;3.20;;
67372;SDS011;54257;54.496;18.412;2023-05-10T10:24:46;8.20;;;3.20;;
67372;SDS011;54257;54.496;18.412;2023-05-10T10:30:02;11.10;;;3.30;;
67372;SDS011;54257;54.496;18.412;2023-05-10T10:35:45;4.30;;;2.50;;
67372;SDS011;54257;54.496;18.412;2023-05-10T10:38:20;5.60;;;2.80;;
67372;SDS011;54257;54.496;18.412;2023-05-10T10:41:03;16.80;;;4.20;;
67372;SDS011;54257;54.496;18.412;2023-05-10T10:47:39;3.50;;;2.70;;
67372;SDS011;54257;54.496;18.412;2023-05-10T10:50:10;9.50;;;3.80;;
67372;SDS011;54257;54.496;18.412;2023-05-10T10:52:54;8.60;;;3.20;;
67372;SDS011;54257;54.496;18.412;2023-05-10T10:58:58;6.90;;;2.90;;
67372;SDS011;54257;54.496;18.412;2023-05-10T11:01:40;4.20;;;2.70;;
67372;SDS011;54257;54.496;18.412;2023-05-10T11:04:18;30.50;;;4.90;;
67372;SDS011;54257;54.496;18.412;2023-05-10T11:07:17;12.00;;;3.70;;
67372;SDS011;54257;54.496;18.412;2023-05-10T11:09:47;7.80;;;2.80;;
67372;SDS011;54257;54.496;18.412;2023-05-10T11:12:14;9.10;;;3.00;;
67372;SDS011;54257;54.496;18.412;2023-05-10T11:14:42;5.20;;;2.90;;
67372;SDS011;54257;54.496;18.412;2023-05-10T11:17:27;4.00;;;2.50;;
67372;SDS011;54257;54.496;18.412;2023-05-10T11:20:13;5.00;;;3.00;;
67372;SDS011;54257;54.496;18.412;2023-05-10T11:22:50;4.90;;;3.60;;
67372;SDS011;54257;54.496;18.412;2023-05-10T11:25:18;7.70;;;3.10;;
67372;SDS011;54257;54.496;18.412;2023-05-10T11:27:47;13.40;;;3.90;;
67372;SDS011;54257;54.496;18.412;2023-05-10T11:30:14;7.20;;;3.10;;
67372;SDS011;54257;54.496;18.412;2023-05-10T11:32:41;10.30;;;3.20;;
67372;SDS011;54257;54.496;18.412;2023-05-10T11:35:09;8.60;;;2.90;;
67372;SDS011;54257;54.496;18.412;2023-05-10T11:37:40;5.10;;;2.70;;
67372;SDS011;54257;54.496;18.412;2023-05-10T11:40:13;5.80;;;2.70;;
67372;SDS011;54257;54.496;18.412;2023-05-10T11:42:41;8.30;;;3.00;;
67372;SDS011;54257;54.496;18.412;2023-05-10T11:45:08;6.90;;;3.40;;
67372;SDS011;54257;54.496;18.412;2023-05-10T11:47:35;6.00;;;2.90;;
67372;SDS011;54257;54.496;18.412;2023-05-10T11:50:03;5.60;;;2.50;;
67372;SDS011;54257;54.496;18.412;2023-05-10T11:52:35;9.60;;;3.20;;
67372;SDS011;54257;54.496;18.412;2023-05-10T11:55:03;6.80;;;3.00;;
67372;SDS011;54257;54.496;18.412;2023-05-10T11:57:30;6.20;;;3.10;;
67372;SDS011;54257;54.496;18.412;2023-05-10T11:59:57;11.30;;;3.10;;
67372;SDS011;54257;54.496;18.412;2023-05-10T12:02:24;8.90;;;3.00;;
67372;SDS011;54257;54.496;18.412;2023-05-10T12:04:52;7.60;;;3.00;;
67372;SDS011;54257;54.496;18.412;2023-05-10T12:07:19;9.30;;;2.90;;
67372;SDS011;54257;54.496;18.412;2023-05-10T12:12:45;6.30;;;2.90;;
67372;SDS011;54257;54.496;18.412;2023-05-10T12:15:18;10.00;;;3.50;;
67372;SDS011;54257;54.496;18.412;2023-05-10T12:17:46;6.00;;;2.70;;
67372;SDS011;54257;54.496;18.412;2023-05-10T12:20:18;26.50;;;4.40;;
67372;SDS011;54257;54.496;18.412;2023-05-10T12:22:53;9.60;;;3.30;;
67372;SDS011;54257;54.496;18.412;2023-05-10T12:25:22;4.30;;;3.00;;
67372;SDS011;54257;54.496;18.412;2023-05-10T12:30:25;7.30;;;3.30;;
67372;SDS011;54257;54.496;18.412;2023-05-10T12:33:00;6.70;;;3.10;;
67372;SDS011;54257;54.496;18.412;2023-05-10T12:35:31;7.10;;;3.40;;
67372;SDS011;54257;54.496;18.412;2023-05-10T12:37:58;14.10;;;3.10;;
67372;SDS011;54257;54.496;18.412;2023-05-10T12:40:31;4.80;;;3.00;;
67372;SDS011;54257;54.496;18.412;2023-05-10T12:43:02;4.10;;;2.60;;
67372;SDS011;54257;54.496;18.412;2023-05-10T12:45:33;5.80;;;2.50;;
67372;SDS011;54257;54.496;18.412;2023-05-10T12:48:00;10.20;;;2.80;;
67372;SDS011;54257;54.496;18.412;2023-05-10T12:50:30;12.50;;;3.10;;
67372;SDS011;54257;54.496;18.412;2023-05-10T12:52:58;9.20;;;3.00;;
67372;SDS011;54257;54.496;18.412;2023-05-10T12:55:24;10.00;;;3.00;;
67372;SDS011;54257;54.496;18.412;2023-05-10T12:57:51;13.10;;;3.40;;
67372;SDS011;54257;54.496;18.412;2023-05-10T13:00:26;3.10;;;2.60;;
67372;SDS011;54257;54.496;18.412;2023-05-10T13:02:53;6.40;;;2.70;;
67372;SDS011;54257;54.496;18.412;2023-05-10T13:05:20;6.20;;;2.70;;
67372;SDS011;54257;54.496;18.412;2023-05-10T13:07:47;7.40;;;2.70;;
67372;SDS011;54257;54.496;18.412;2023-05-10T13:10:14;5.60;;;3.00;;
67372;SDS011;54257;54.496;18.412;2023-05-10T13:12:42;7.00;;;2.50;;
67372;SDS011;54257;54.496;18.412;2023-05-10T13:15:09;8.30;;;3.70;;
67372;SDS011;54257;54.496;18.412;2023-05-10T13:17:36;6.30;;;3.00;;
67372;SDS011;54257;54.496;18.412;2023-05-10T13:20:05;4.20;;;2.60;;
67372;SDS011;54257;54.496;18.412;2023-05-10T13:22:33;7.50;;;3.60;;
67372;SDS011;54257;54.496;18.412;2023-05-10T13:24:59;10.40;;;3.20;;
67372;SDS011;54257;54.496;18.412;2023-05-10T13:27:26;8.20;;;3.30;;
67372;SDS011;54257;54.496;18.412;2023-05-10T13:29:53;4.50;;;2.60;;
67372;SDS011;54257;54.496;18.412;2023-05-10T13:32:21;10.40;;;3.00;;
67372;SDS011;54257;54.496;18.412;2023-05-10T13:34:48;6.10;;;2.60;;
67372;SDS011;54257;54.496;18.412;2023-05-10T13:37:15;8.10;;;2.80;;
67372;SDS011;54257;54.496;18.412;2023-05-10T13:39:41;13.00;;;3.30;;
67372;SDS011;54257;54.496;18.412;2023-05-10T13:42:08;7.70;;;3.10;;
67372;SDS011;54257;54.496;18.412;2023-05-10T13:44:35;11.30;;;2.70;;
67372;SDS011;54257;54.496;18.412;2023-05-10T13:47:02;7.30;;;2.70;;
67372;SDS011;54257;54.496;18.412;2023-05-10T13:49:29;7.30;;;3.00;;
67372;SDS011;54257;54.496;18.412;2023-05-10T13:51:56;4.70;;;2.70;;
67372;SDS011;54257;54.496;18.412;2023-05-10T13:54:23;5.60;;;2.70;;
67372;SDS011;54257;54.496;18.412;2023-05-10T13:56:50;7.40;;;2.80;;
67372;SDS011;54257;54.496;18.412;2023-05-10T13:59:18;7.40;;;3.30;;
67372;SDS011;54257;54.496;18.412;2023-05-10T14:01:45;5.10;;;2.80;;
67372;SDS011;54257;54.496;18.412;2023-05-10T14:04:11;8.10;;;3.10;;
67372;SDS011;54257;54.496;18.412;2023-05-10T14:06:38;3.90;;;3.20;;
67372;SDS011;54257;54.496;18.412;2023-05-10T14:09:08;5.50;;;2.80;;
67372;SDS011;54257;54.496;18.412;2023-05-10T14:11:35;4.60;;;2.60;;
67372;SDS011;54257;54.496;18.412;2023-05-10T14:14:02;7.30;;;3.10;;
67372;SDS011;54257;54.496;18.412;2023-05-10T14:16:29;6.50;;;2.70;;
67372;SDS011;54257;54.496;18.412;2023-05-10T14:18:56;7.80;;;3.20;;
67372;SDS011;54257;54.496;18.412;2023-05-10T14:21:26;17.40;;;4.60;;
67372;SDS011;54257;54.496;18.412;2023-05-10T14:23:53;17.90;;;4.20;;
67372;SDS011;54257;54.496;18.412;2023-05-10T14:26:20;9.80;;;2.60;;
67372;SDS011;54257;54.496;18.412;2023-05-10T14:28:50;6.70;;;3.40;;
67372;SDS011;54257;54.496;18.412;2023-05-10T14:31:18;6.30;;;2.60;;
67372;SDS011;54257;54.496;18.412;2023-05-10T14:33:54;9.40;;;3.20;;
67372;SDS011;54257;54.496;18.412;2023-05-10T14:36:23;22.00;;;4.50;;
67372;SDS011;54257;54.496;18.412;2023-05-10T14:38:55;7.40;;;3.60;;
67372;SDS011;54257;54.496;18.412;2023-05-10T14:41:27;7.50;;;3.50;;
67372;SDS011;54257;54.496;18.412;2023-05-10T14:43:59;6.20;;;3.20;;
67372;SDS011;54257;54.496;18.412;2023-05-10T14:46:26;13.20;;;3.40;;
67372;SDS011;54257;54.496;18.412;2023-05-10T14:48:56;6.00;;;2.90;;
67372;SDS011;54257;54.496;18.412;2023-05-10T14:51:24;3.90;;;2.30;;
67372;SDS011;54257;54.496;18.412;2023-05-10T14:53:53;6.30;;;3.00;;
67372;SDS011;54257;54.496;18.412;2023-05-10T14:56:23;9.80;;;3.10;;
67372;SDS011;54257;54.496;18.412;2023-05-10T14:58:59;12.30;;;2.80;;
67372;SDS011;54257;54.496;18.412;2023-05-10T15:01:27;4.30;;;2.40;;
67372;SDS011;54257;54.496;18.412;2023-05-10T15:03:57;9.60;;;3.30;;
67372;SDS011;54257;54.496;18.412;2023-05-10T15:06:30;6.60;;;2.60;;
67372;SDS011;54257;54.496;18.412;2023-05-10T15:08:58;6.70;;;2.70;;
67372;SDS011;54257;54.496;18.412;2023-05-10T15:11:25;8.90;;;2.50;;
67372;SDS011;54257;54.496;18.412;2023-05-10T15:13:52;8.20;;;2.90;;
67372;SDS011;54257;54.496;18.412;2023-05-10T15:16:19;6.20;;;2.90;;
67372;SDS011;54257;54.496;18.412;2023-05-10T15:18:49;5.30;;;2.40;;